Antares — DFJQ — position and weather

sailwx.info

Track history (hours):
 
Tides and Currents Weather Stations Pressure Air Temp Water Temp Dewpoint Dewpoint Depression Visibility Wind Speed Wind Dir Waves Ship Positions

Antares

Last reported at 2017-Jan-22 23:32 UTC. Time now 2017-Jan-23 00:32 UTC.
Position N 53°52' E 008°43'.

Length 79 m; draft 4.5 m.

Type: Ship. MMSI: 218777000.

Date/timePositionNaut miles runAvg speedWind from/ knotsBaromVisibWave heightAir tempDewpointWater temp
2017-Jan-22 23:32N 53°52' E 008°43'0 0.0
2017-Jan-22 22:32N 53°52' E 008°43'0 0.0
2017-Jan-22 21:29N 53°52' E 008°43'0 0.0
2017-Jan-22 20:32N 53°52' E 008°43'0 0.0
2017-Jan-22 19:32N 53°52' E 008°43'0 0.0
2017-Jan-22 18:32N 53°52' E 008°43'0 0.0
2017-Jan-22 17:32N 53°52' E 008°43'0 0.3
2017-Jan-22 16:33N 53°52' E 008°43'5 4.7
2017-Jan-22 15:33N 53°56' E 008°39'1010.2
2017-Jan-22 14:33N 53°59' E 008°22'1110.9
2017-Jan-22 13:33N 53°59' E 008°04'1110.4
2017-Jan-22 12:31N 53°57' E 007°46'49 9.5
2017-Jan-22 07:26N 53°45' E 006°26'910.0
2017-Jan-22 06:33N 53°43' E 006°12'1210.2
2017-Jan-22 05:24N 53°39' E 005°53'910.5
2017-Jan-22 04:34N 53°36' E 005°39'1110.7
2017-Jan-22 03:33N 53°32' E 005°22'1111.0
2017-Jan-22 02:33N 53°29' E 005°04'1111.4
2017-Jan-22 01:34N 53°24' E 004°47'1211.6
2017-Jan-22 00:30N 53°14' E 004°36'1112.1
2017-Jan-21 23:34N 53°04' E 004°26'1311.7
2017-Jan-21 22:29N 52°53' E 004°16'1011.1
2017-Jan-21 21:33N 52°45' E 004°05'87 9.6
2017-Jan-21 12:31N 51°41' E 002°30'10 9.9
2017-Jan-21 11:33N 51°34' E 002°20'1010.5
2017-Jan-21 10:34N 51°25' E 002°11'1110.5
2017-Jan-21 09:34N 51°15' E 002°05'1110.7
2017-Jan-21 08:34N 51°09' E 001°51'1111.2
2017-Jan-21 07:34N 51°01' E 001°39'1111.2
2017-Jan-21 06:33N 50°52' E 001°28'59 9.7
2017-Jan-21 00:28N 50°19' E 000°10'9 9.6
2017-Jan-20 23:30N 50°17' W 000°04'34 8.2
2017-Jan-20 19:20N 50°08' W 000°56'6 7.3
2017-Jan-20 18:33N 50°07' W 001°04'8 7.5
2017-Jan-20 17:33N 50°05' W 001°16'8 8.1
2017-Jan-20 16:33N 50°03' W 001°28'8 8.3
2017-Jan-20 15:33N 50°01' W 001°40'1010.2
2017-Jan-20 14:33N 49°59' W 001°56'3210.6
2017-Jan-20 11:32N 49°51' W 002°44'18 9.3
2017-Jan-20 09:33N 49°46' W 003°12'9 8.9
2017-Jan-20 08:33N 49°45' W 003°25'11 8.7
2017-Jan-20 07:19N 49°44' W 003°42'31 7.8
2017-Jan-20 03:16N 49°42' W 004°30'6 6.9
2017-Jan-20 02:26N 49°42' W 004°39'6 6.7
2017-Jan-20 01:34N 49°42' W 004°48'39 6.3
2017-Jan-19 19:26N 49°49' W 005°47'15 7.4
2017-Jan-19 17:24N 50°01' W 006°02'2010.1
2017-Jan-19 15:24N 50°21' W 006°02'197 9.8
2017-Jan-18 19:25N 53°32' W 004°46'3311.5
2017-Jan-18 16:33N 53°34' W 003°50'1010.3
2017-Jan-18 15:34N 53°34' W 003°33'10 9.9
2017-Jan-18 14:33N 53°32' W 003°17'8 8.1
2017-Jan-18 13:33N 53°28' W 003°04'5 4.6
2017-Jan-18 12:33N 53°24' W 003°01'0 0.0
2017-Jan-18 11:33N 53°24' W 003°01'1 1.1
2017-Jan-18 10:31N 53°25' W 003°03'0 0.0
2017-Jan-18 09:31N 53°25' W 003°03'0 0.0
2017-Jan-18 08:31N 53°25' W 003°03'0 0.0
2017-Jan-18 07:31N 53°25' W 003°03'0 0.0
2017-Jan-18 06:28N 53°25' W 003°03'0 0.0
2017-Jan-18 05:31N 53°25' W 003°03'0 0.0
2017-Jan-18 04:31N 53°25' W 003°03'0 0.0
2017-Jan-18 03:28N 53°25' W 003°03'0 0.0
2017-Jan-18 02:31N 53°25' W 003°03'0 0.0
2017-Jan-18 01:31N 53°25' W 003°03'0 0.0
2017-Jan-18 00:31N 53°25' W 003°03'0 0.0
2017-Jan-17 23:28N 53°25' W 003°03'0 0.0
2017-Jan-17 22:31N 53°25' W 003°03'0 0.0
2017-Jan-17 21:31N 53°25' W 003°03'0 0.0
2017-Jan-17 20:31N 53°25' W 003°03'0 0.0
2017-Jan-17 19:31N 53°25' W 003°03'0 0.0
2017-Jan-17 18:31N 53°25' W 003°03'0 0.0
2017-Jan-17 17:28N 53°25' W 003°03'0 0.0
2017-Jan-17 16:31N 53°25' W 003°03'0 0.0
2017-Jan-17 15:31N 53°25' W 003°03'0 0.0
2017-Jan-17 14:31N 53°25' W 003°03'0 0.0
2017-Jan-17 13:31N 53°25' W 003°03'0 0.0
2017-Jan-17 12:25N 53°25' W 003°03'0 0.0
2017-Jan-17 11:31N 53°25' W 003°03'0 0.0
2017-Jan-17 10:25N 53°25' W 003°03'0 0.0
2017-Jan-17 09:31N 53°25' W 003°03'0 0.0
2017-Jan-17 08:31N 53°25' W 003°03'0 0.0
2017-Jan-17 07:31N 53°25' W 003°03'0 0.0
2017-Jan-17 06:31N 53°25' W 003°03'0 0.0
2017-Jan-17 05:31N 53°25' W 003°03'0 0.0
2017-Jan-17 04:31N 53°25' W 003°03'0 0.4
2017-Jan-17 03:33N 53°24' W 003°03'1 0.9
2017-Jan-17 02:33N 53°24' W 003°01'0 0.3
2017-Jan-17 01:33N 53°24' W 003°01'9 8.7
2017-Jan-17 00:33N 53°32' W 003°09'9 9.4
2017-Jan-16 23:33N 53°30' W 003°24'1 1.1
2017-Jan-16 22:33N 53°29' W 003°25'0 0.0
2017-Jan-16 21:30N 53°29' W 003°25'0 0.0
2017-Jan-16 20:27N 53°29' W 003°25'0 0.1
2017-Jan-16 19:33N 53°29' W 003°26'0 0.0
2017-Jan-16 18:33N 53°29' W 003°26'0 0.0
2017-Jan-16 17:30N 53°29' W 003°26'0 0.0
2017-Jan-16 16:33N 53°29' W 003°26'5 4.7
2017-Jan-16 15:33N 53°31' W 003°33'9 9.2
2017-Jan-16 14:32N 53°31' W 003°49'167 8.4
2017-Jan-15 18:32N 51°01' W 005°53'9 8.6
2017-Jan-15 17:32N 50°53' W 005°53'8 8.2
2017-Jan-15 16:33N 50°45' W 005°53'8 8.0
2017-Jan-15 15:33N 50°37' W 005°53'9 7.8
2017-Jan-15 14:26N 50°28' W 005°53'7 7.7
2017-Jan-15 13:32N 50°21' W 005°53'29 5.5
2017-Jan-15 08:19N 49°56' W 005°32'14 6.4
2017-Jan-15 06:10N 49°54' W 005°11'5 7.1
2017-Jan-15 05:30N 49°55' W 005°04'10 8.1
2017-Jan-15 04:20N 49°56' W 004°49'7 8.8
2017-Jan-15 03:33N 49°57' W 004°39'9 9.5
2017-Jan-15 02:34N 49°59' W 004°24'1010.1
2017-Jan-15 01:34N 50°01' W 004°09'84 8.4
2017-Jan-14 15:33N 50°10' W 001°59'1111.3
2017-Jan-14 14:33N 50°08' W 001°42'1010.2
2017-Jan-14 13:33N 50°04' W 001°27'9 8.6
2017-Jan-14 12:33N 50°01' W 001°15'6 6.3
2017-Jan-14 11:33N 49°58' W 001°06'5 4.9
2017-Jan-14 10:33N 49°55' W 001°01'4 4.2
2017-Jan-14 09:33N 49°51' W 000°56'4 3.8
2017-Jan-14 08:33N 49°48' W 000°53'4 3.8
2017-Jan-14 07:33N 49°45' W 000°50'5 4.8
2017-Jan-14 06:33N 49°42' W 000°45'7 6.8
2017-Jan-14 05:33N 49°38' W 000°36'8 7.8
2017-Jan-14 04:34N 49°33' W 000°26'7 7.2
2017-Jan-14 03:33N 49°31' W 000°16'30 7.4
2017-Jan-13 23:33N 49°29' E 000°30'2 2.1
2017-Jan-13 22:31N 49°28' E 000°33'0 0.0
2017-Jan-13 21:31N 49°28' E 000°33'0 0.0
2017-Jan-13 20:31N 49°28' E 000°33'0 0.0
2017-Jan-13 19:31N 49°28' E 000°33'0 0.0
2017-Jan-13 18:28N 49°28' E 000°33'0 0.0
2017-Jan-13 17:25N 49°28' E 000°33'0 0.0
2017-Jan-13 16:31N 49°28' E 000°33'0 0.0
2017-Jan-13 15:31N 49°28' E 000°33'0 0.0
2017-Jan-13 14:31N 49°28' E 000°33'0 0.0
2017-Jan-13 13:31N 49°28' E 000°33'0 0.0
2017-Jan-13 12:31N 49°28' E 000°33'0 0.0
2017-Jan-13 11:31N 49°28' E 000°33'0 0.0
2017-Jan-13 10:31N 49°28' E 000°33'0 0.0
2017-Jan-13 09:31N 49°28' E 000°33'0 0.0
2017-Jan-13 08:31N 49°28' E 000°33'0 0.0
2017-Jan-13 07:31N 49°28' E 000°33'0 0.0
2017-Jan-13 06:31N 49°28' E 000°33'0 0.0
2017-Jan-13 05:28N 49°28' E 000°33'0 0.0
2017-Jan-13 04:31N 49°28' E 000°33'0 0.0
2017-Jan-13 03:31N 49°28' E 000°33'0 0.0
2017-Jan-13 02:31N 49°28' E 000°33'0 0.0
2017-Jan-13 01:28N 49°28' E 000°33'0 0.0
2017-Jan-13 00:28N 49°28' E 000°33'  
Track history (hours):
 
Tides and Currents Weather Stations Pressure Air Temp Water Temp Dewpoint Dewpoint Depression Visibility Wind Speed Wind Dir Waves Ship Positions

Antares

Last reported at 2017-Jan-22 23:32 UTC. Time now 2017-Jan-23 00:32 UTC.
Position N 53°52' E 008°43'.

Length 79 m; draft 4.5 m.

Type: Ship. MMSI: 218777000.

Date/timePositionNaut miles runAvg speedWind from/ knotsBaromVisibWave heightAir tempDewpointWater temp
2017-Jan-22 23:32N 53°52' E 008°43'0 0.0
2017-Jan-22 22:32N 53°52' E 008°43'0 0.0
2017-Jan-22 21:29N 53°52' E 008°43'0 0.0
2017-Jan-22 20:32N 53°52' E 008°43'0 0.0
2017-Jan-22 19:32N 53°52' E 008°43'0 0.0
2017-Jan-22 18:32N 53°52' E 008°43'0 0.0
2017-Jan-22 17:32N 53°52' E 008°43'0 0.3
2017-Jan-22 16:33N 53°52' E 008°43'5 4.7
2017-Jan-22 15:33N 53°56' E 008°39'1010.2
2017-Jan-22 14:33N 53°59' E 008°22'1110.9
2017-Jan-22 13:33N 53°59' E 008°04'1110.4
2017-Jan-22 12:31N 53°57' E 007°46'49 9.5
2017-Jan-22 07:26N 53°45' E 006°26'910.0
2017-Jan-22 06:33N 53°43' E 006°12'1210.2
2017-Jan-22 05:24N 53°39' E 005°53'910.5
2017-Jan-22 04:34N 53°36' E 005°39'1110.7
2017-Jan-22 03:33N 53°32' E 005°22'1111.0
2017-Jan-22 02:33N 53°29' E 005°04'1111.4
2017-Jan-22 01:34N 53°24' E 004°47'1211.6
2017-Jan-22 00:30N 53°14' E 004°36'1112.1
2017-Jan-21 23:34N 53°04' E 004°26'1311.7
2017-Jan-21 22:29N 52°53' E 004°16'1011.1
2017-Jan-21 21:33N 52°45' E 004°05'87 9.6
2017-Jan-21 12:31N 51°41' E 002°30'10 9.9
2017-Jan-21 11:33N 51°34' E 002°20'1010.5
2017-Jan-21 10:34N 51°25' E 002°11'1110.5
2017-Jan-21 09:34N 51°15' E 002°05'1110.7
2017-Jan-21 08:34N 51°09' E 001°51'1111.2
2017-Jan-21 07:34N 51°01' E 001°39'1111.2
2017-Jan-21 06:33N 50°52' E 001°28'59 9.7
2017-Jan-21 00:28N 50°19' E 000°10'9 9.6
2017-Jan-20 23:30N 50°17' W 000°04'34 8.2
2017-Jan-20 19:20N 50°08' W 000°56'6 7.3
2017-Jan-20 18:33N 50°07' W 001°04'8 7.5
2017-Jan-20 17:33N 50°05' W 001°16'8 8.1
2017-Jan-20 16:33N 50°03' W 001°28'8 8.3
2017-Jan-20 15:33N 50°01' W 001°40'1010.2
2017-Jan-20 14:33N 49°59' W 001°56'3210.6
2017-Jan-20 11:32N 49°51' W 002°44'18 9.3
2017-Jan-20 09:33N 49°46' W 003°12'9 8.9
2017-Jan-20 08:33N 49°45' W 003°25'11 8.7
2017-Jan-20 07:19N 49°44' W 003°42'31 7.8
2017-Jan-20 03:16N 49°42' W 004°30'6 6.9
2017-Jan-20 02:26N 49°42' W 004°39'6 6.7
2017-Jan-20 01:34N 49°42' W 004°48'39 6.3
2017-Jan-19 19:26N 49°49' W 005°47'15 7.4
2017-Jan-19 17:24N 50°01' W 006°02'2010.1
2017-Jan-19 15:24N 50°21' W 006°02'197 9.8
2017-Jan-18 19:25N 53°32' W 004°46'3311.5
2017-Jan-18 16:33N 53°34' W 003°50'1010.3
2017-Jan-18 15:34N 53°34' W 003°33'10 9.9
2017-Jan-18 14:33N 53°32' W 003°17'8 8.1
2017-Jan-18 13:33N 53°28' W 003°04'5 4.6
2017-Jan-18 12:33N 53°24' W 003°01'0 0.0
2017-Jan-18 11:33N 53°24' W 003°01'1 1.1
2017-Jan-18 10:31N 53°25' W 003°03'0 0.0
2017-Jan-18 09:31N 53°25' W 003°03'0 0.0
2017-Jan-18 08:31N 53°25' W 003°03'0 0.0
2017-Jan-18 07:31N 53°25' W 003°03'0 0.0
2017-Jan-18 06:28N 53°25' W 003°03'0 0.0
2017-Jan-18 05:31N 53°25' W 003°03'0 0.0
2017-Jan-18 04:31N 53°25' W 003°03'0 0.0
2017-Jan-18 03:28N 53°25' W 003°03'0 0.0
2017-Jan-18 02:31N 53°25' W 003°03'0 0.0
2017-Jan-18 01:31N 53°25' W 003°03'0 0.0
2017-Jan-18 00:31N 53°25' W 003°03'0 0.0
2017-Jan-17 23:28N 53°25' W 003°03'0 0.0
2017-Jan-17 22:31N 53°25' W 003°03'0 0.0
2017-Jan-17 21:31N 53°25' W 003°03'0 0.0
2017-Jan-17 20:31N 53°25' W 003°03'0 0.0
2017-Jan-17 19:31N 53°25' W 003°03'0 0.0
2017-Jan-17 18:31N 53°25' W 003°03'0 0.0
2017-Jan-17 17:28N 53°25' W 003°03'0 0.0
2017-Jan-17 16:31N 53°25' W 003°03'0 0.0
2017-Jan-17 15:31N 53°25' W 003°03'0 0.0
2017-Jan-17 14:31N 53°25' W 003°03'0 0.0
2017-Jan-17 13:31N 53°25' W 003°03'0 0.0
2017-Jan-17 12:25N 53°25' W 003°03'0 0.0
2017-Jan-17 11:31N 53°25' W 003°03'0 0.0
2017-Jan-17 10:25N 53°25' W 003°03'0 0.0
2017-Jan-17 09:31N 53°25' W 003°03'0 0.0
2017-Jan-17 08:31N 53°25' W 003°03'0 0.0
2017-Jan-17 07:31N 53°25' W 003°03'0 0.0
2017-Jan-17 06:31N 53°25' W 003°03'0 0.0
2017-Jan-17 05:31N 53°25' W 003°03'0 0.0
2017-Jan-17 04:31N 53°25' W 003°03'0 0.4
2017-Jan-17 03:33N 53°24' W 003°03'1 0.9
2017-Jan-17 02:33N 53°24' W 003°01'0 0.3
2017-Jan-17 01:33N 53°24' W 003°01'9 8.7
2017-Jan-17 00:33N 53°32' W 003°09'9 9.4
2017-Jan-16 23:33N 53°30' W 003°24'1 1.1
2017-Jan-16 22:33N 53°29' W 003°25'0 0.0
2017-Jan-16 21:30N 53°29' W 003°25'0 0.0
2017-Jan-16 20:27N 53°29' W 003°25'0 0.1
2017-Jan-16 19:33N 53°29' W 003°26'0 0.0
2017-Jan-16 18:33N 53°29' W 003°26'0 0.0
2017-Jan-16 17:30N 53°29' W 003°26'0 0.0
2017-Jan-16 16:33N 53°29' W 003°26'5 4.7
2017-Jan-16 15:33N 53°31' W 003°33'9 9.2
2017-Jan-16 14:32N 53°31' W 003°49'167 8.4
2017-Jan-15 18:32N 51°01' W 005°53'9 8.6
2017-Jan-15 17:32N 50°53' W 005°53'8 8.2
2017-Jan-15 16:33N 50°45' W 005°53'8 8.0
2017-Jan-15 15:33N 50°37' W 005°53'9 7.8
2017-Jan-15 14:26N 50°28' W 005°53'7 7.7
2017-Jan-15 13:32N 50°21' W 005°53'29 5.5
2017-Jan-15 08:19N 49°56' W 005°32'14 6.4
2017-Jan-15 06:10N 49°54' W 005°11'5 7.1
2017-Jan-15 05:30N 49°55' W 005°04'10 8.1
2017-Jan-15 04:20N 49°56' W 004°49'7 8.8
2017-Jan-15 03:33N 49°57' W 004°39'9 9.5
2017-Jan-15 02:34N 49°59' W 004°24'1010.1
2017-Jan-15 01:34N 50°01' W 004°09'84 8.4
2017-Jan-14 15:33N 50°10' W 001°59'1111.3
2017-Jan-14 14:33N 50°08' W 001°42'1010.2
2017-Jan-14 13:33N 50°04' W 001°27'9 8.6
2017-Jan-14 12:33N 50°01' W 001°15'6 6.3
2017-Jan-14 11:33N 49°58' W 001°06'5 4.9
2017-Jan-14 10:33N 49°55' W 001°01'4 4.2
2017-Jan-14 09:33N 49°51' W 000°56'4 3.8
2017-Jan-14 08:33N 49°48' W 000°53'4 3.8
2017-Jan-14 07:33N 49°45' W 000°50'5 4.8
2017-Jan-14 06:33N 49°42' W 000°45'7 6.8
2017-Jan-14 05:33N 49°38' W 000°36'8 7.8
2017-Jan-14 04:34N 49°33' W 000°26'7 7.2
2017-Jan-14 03:33N 49°31' W 000°16'30 7.4
2017-Jan-13 23:33N 49°29' E 000°30'2 2.1
2017-Jan-13 22:31N 49°28' E 000°33'0 0.0
2017-Jan-13 21:31N 49°28' E 000°33'0 0.0
2017-Jan-13 20:31N 49°28' E 000°33'0 0.0
2017-Jan-13 19:31N 49°28' E 000°33'0 0.0
2017-Jan-13 18:28N 49°28' E 000°33'0 0.0
2017-Jan-13 17:25N 49°28' E 000°33'0 0.0
2017-Jan-13 16:31N 49°28' E 000°33'0 0.0
2017-Jan-13 15:31N 49°28' E 000°33'0 0.0
2017-Jan-13 14:31N 49°28' E 000°33'0 0.0
2017-Jan-13 13:31N 49°28' E 000°33'0 0.0
2017-Jan-13 12:31N 49°28' E 000°33'0 0.0
2017-Jan-13 11:31N 49°28' E 000°33'0 0.0
2017-Jan-13 10:31N 49°28' E 000°33'0 0.0
2017-Jan-13 09:31N 49°28' E 000°33'0 0.0
2017-Jan-13 08:31N 49°28' E 000°33'0 0.0
2017-Jan-13 07:31N 49°28' E 000°33'0 0.0
2017-Jan-13 06:31N 49°28' E 000°33'0 0.0
2017-Jan-13 05:28N 49°28' E 000°33'0 0.0
2017-Jan-13 04:31N 49°28' E 000°33'0 0.0
2017-Jan-13 03:31N 49°28' E 000°33'0 0.0
2017-Jan-13 02:31N 49°28' E 000°33'0 0.0
2017-Jan-13 01:28N 49°28' E 000°33'0 0.0
2017-Jan-13 00:28N 49°28' E 000°33'  

Dump ship's entire track history